sensor_id;sensor_type;location;lat;lon;timestamp;temperature;humidity
39371;DHT22;25099;51.946;4.838;2024-02-23T00:00:52;7.10;99.90
39371;DHT22;25099;51.946;4.838;2024-02-23T00:03:18;7.10;99.90
39371;DHT22;25099;51.946;4.838;2024-02-23T00:05:43;7.20;99.90
39371;DHT22;25099;51.946;4.838;2024-02-23T00:08:09;7.20;99.90
39371;DHT22;25099;51.946;4.838;2024-02-23T00:10:34;7.20;99.90
39371;DHT22;25099;51.946;4.838;2024-02-23T00:13:00;7.20;99.90
39371;DHT22;25099;51.946;4.838;2024-02-23T00:15:26;7.10;99.90
39371;DHT22;25099;51.946;4.838;2024-02-23T00:17:52;7.10;99.90
39371;DHT22;25099;51.946;4.838;2024-02-23T00:20:17;7.00;99.90
39371;DHT22;25099;51.946;4.838;2024-02-23T00:22:43;7.00;99.90
39371;DHT22;25099;51.946;4.838;2024-02-23T00:25:08;7.00;99.90
39371;DHT22;25099;51.946;4.838;2024-02-23T00:27:34;6.90;99.90
39371;DHT22;25099;51.946;4.838;2024-02-23T00:29:59;6.90;99.90
39371;DHT22;25099;51.946;4.838;2024-02-23T00:32:25;6.90;99.90
39371;DHT22;25099;51.946;4.838;2024-02-23T00:34:51;6.90;99.90
39371;DHT22;25099;51.946;4.838;2024-02-23T00:37:16;6.90;99.90
39371;DHT22;25099;51.946;4.838;2024-02-23T00:39:42;6.90;99.90
39371;DHT22;25099;51.946;4.838;2024-02-23T00:42:07;6.90;99.90
39371;DHT22;25099;51.946;4.838;2024-02-23T00:44:33;7.00;99.90
39371;DHT22;25099;51.946;4.838;2024-02-23T00:46:58;7.00;99.90
39371;DHT22;25099;51.946;4.838;2024-02-23T00:49:27;7.00;99.90
39371;DHT22;25099;51.946;4.838;2024-02-23T00:51:53;7.10;99.90
39371;DHT22;25099;51.946;4.838;2024-02-23T00:54:19;7.10;99.90
39371;DHT22;25099;51.946;4.838;2024-02-23T00:56:44;7.10;99.90
39371;DHT22;25099;51.946;4.838;2024-02-23T00:59:10;7.10;99.90
39371;DHT22;25099;51.946;4.838;2024-02-23T01:01:36;7.10;99.90
39371;DHT22;25099;51.946;4.838;2024-02-23T01:04:01;7.10;99.90
39371;DHT22;25099;51.946;4.838;2024-02-23T01:06:27;7.10;99.90
39371;DHT22;25099;51.946;4.838;2024-02-23T01:08:53;7.20;99.90
39371;DHT22;25099;51.946;4.838;2024-02-23T01:11:19;7.10;99.90
39371;DHT22;25099;51.946;4.838;2024-02-23T01:13:44;7.20;99.90
39371;DHT22;25099;51.946;4.838;2024-02-23T01:16:10;7.20;99.90
39371;DHT22;25099;51.946;4.838;2024-02-23T01:18:36;7.20;99.90
39371;DHT22;25099;51.946;4.838;2024-02-23T01:21:01;7.20;99.90
39371;DHT22;25099;51.946;4.838;2024-02-23T01:23:27;7.20;99.90
39371;DHT22;25099;51.946;4.838;2024-02-23T01:25:52;7.20;99.90
39371;DHT22;25099;51.946;4.838;2024-02-23T01:28:18;7.10;99.90
39371;DHT22;25099;51.946;4.838;2024-02-23T01:30:44;7.10;99.90
39371;DHT22;25099;51.946;4.838;2024-02-23T01:33:09;7.10;99.90
39371;DHT22;25099;51.946;4.838;2024-02-23T01:35:35;7.10;99.90
39371;DHT22;25099;51.946;4.838;2024-02-23T01:38:02;7.10;99.90
39371;DHT22;25099;51.946;4.838;2024-02-23T01:40:28;7.10;99.90
39371;DHT22;25099;51.946;4.838;2024-02-23T01:43:03;7.10;99.90
39371;DHT22;25099;51.946;4.838;2024-02-23T01:45:30;7.10;99.90
39371;DHT22;25099;51.946;4.838;2024-02-23T01:47:56;7.10;99.90
39371;DHT22;25099;51.946;4.838;2024-02-23T01:50:22;7.00;99.90
39371;DHT22;25099;51.946;4.838;2024-02-23T01:52:48;7.00;99.90
39371;DHT22;25099;51.946;4.838;2024-02-23T01:55:14;7.70;99.90
39371;DHT22;25099;51.946;4.838;2024-02-23T01:57:40;6.90;99.90
39371;DHT22;25099;51.946;4.838;2024-02-23T02:00:07;6.80;99.90
39371;DHT22;25099;51.946;4.838;2024-02-23T02:02:33;6.80;99.90
39371;DHT22;25099;51.946;4.838;2024-02-23T02:04:59;6.80;99.90
39371;DHT22;25099;51.946;4.838;2024-02-23T02:07:24;6.80;99.90
39371;DHT22;25099;51.946;4.838;2024-02-23T02:09:50;6.70;99.90
39371;DHT22;25099;51.946;4.838;2024-02-23T02:12:29;6.70;99.90
39371;DHT22;25099;51.946;4.838;2024-02-23T02:14:54;6.70;99.90
39371;DHT22;25099;51.946;4.838;2024-02-23T02:17:21;6.70;99.90
39371;DHT22;25099;51.946;4.838;2024-02-23T02:19:50;6.60;99.90
39371;DHT22;25099;51.946;4.838;2024-02-23T02:22:15;6.60;99.90
39371;DHT22;25099;51.946;4.838;2024-02-23T02:24:41;6.60;99.90
39371;DHT22;25099;51.946;4.838;2024-02-23T02:27:09;6.60;99.90
39371;DHT22;25099;51.946;4.838;2024-02-23T02:29:35;6.60;99.90
39371;DHT22;25099;51.946;4.838;2024-02-23T02:32:01;6.60;99.90
39371;DHT22;25099;51.946;4.838;2024-02-23T02:34:28;6.60;99.90
39371;DHT22;25099;51.946;4.838;2024-02-23T02:36:54;6.60;99.90
39371;DHT22;25099;51.946;4.838;2024-02-23T02:39:20;6.50;99.90
39371;DHT22;25099;51.946;4.838;2024-02-23T02:41:45;6.60;99.90
39371;DHT22;25099;51.946;4.838;2024-02-23T02:44:13;6.50;99.90
39371;DHT22;25099;51.946;4.838;2024-02-23T02:46:39;6.50;99.90
39371;DHT22;25099;51.946;4.838;2024-02-23T02:49:05;6.50;99.90
39371;DHT22;25099;51.946;4.838;2024-02-23T02:51:30;6.50;99.90
39371;DHT22;25099;51.946;4.838;2024-02-23T02:53:56;6.50;99.90
39371;DHT22;25099;51.946;4.838;2024-02-23T02:56:22;6.50;99.90
39371;DHT22;25099;51.946;4.838;2024-02-23T02:58:48;6.40;99.90
39371;DHT22;25099;51.946;4.838;2024-02-23T03:01:13;6.40;99.90
39371;DHT22;25099;51.946;4.838;2024-02-23T03:03:39;6.40;99.90
39371;DHT22;25099;51.946;4.838;2024-02-23T03:06:04;6.40;99.90
39371;DHT22;25099;51.946;4.838;2024-02-23T03:08:31;6.40;99.90
39371;DHT22;25099;51.946;4.838;2024-02-23T03:10:57;6.40;99.90
39371;DHT22;25099;51.946;4.838;2024-02-23T03:13:22;6.30;99.90
39371;DHT22;25099;51.946;4.838;2024-02-23T03:15:48;6.30;99.90
39371;DHT22;25099;51.946;4.838;2024-02-23T03:18:13;6.30;99.90
39371;DHT22;25099;51.946;4.838;2024-02-23T03:20:41;6.30;99.90
39371;DHT22;25099;51.946;4.838;2024-02-23T03:23:07;6.30;99.90
39371;DHT22;25099;51.946;4.838;2024-02-23T03:25:32;6.20;99.90
39371;DHT22;25099;51.946;4.838;2024-02-23T03:27:58;6.30;99.90
39371;DHT22;25099;51.946;4.838;2024-02-23T03:30:23;6.20;99.90
39371;DHT22;25099;51.946;4.838;2024-02-23T03:32:49;6.20;99.90
39371;DHT22;25099;51.946;4.838;2024-02-23T03:35:15;6.20;99.90
39371;DHT22;25099;51.946;4.838;2024-02-23T03:37:40;6.20;99.90
39371;DHT22;25099;51.946;4.838;2024-02-23T03:40:06;6.20;99.90
39371;DHT22;25099;51.946;4.838;2024-02-23T03:42:32;6.10;99.90
39371;DHT22;25099;51.946;4.838;2024-02-23T03:44:58;6.10;99.90
39371;DHT22;25099;51.946;4.838;2024-02-23T03:47:23;6.40;99.90
39371;DHT22;25099;51.946;4.838;2024-02-23T03:49:49;6.10;99.90
39371;DHT22;25099;51.946;4.838;2024-02-23T03:52:14;6.10;99.90
39371;DHT22;25099;51.946;4.838;2024-02-23T03:54:40;6.10;99.90
39371;DHT22;25099;51.946;4.838;2024-02-23T03:57:05;6.10;99.90
39371;DHT22;25099;51.946;4.838;2024-02-23T03:59:31;6.10;99.90
39371;DHT22;25099;51.946;4.838;2024-02-23T04:01:56;6.10;99.90
39371;DHT22;25099;51.946;4.838;2024-02-23T04:04:22;6.10;99.90
39371;DHT22;25099;51.946;4.838;2024-02-23T04:06:47;6.10;99.90
39371;DHT22;25099;51.946;4.838;2024-02-23T04:09:13;6.10;99.90
39371;DHT22;25099;51.946;4.838;2024-02-23T04:11:39;6.10;99.90
39371;DHT22;25099;51.946;4.838;2024-02-23T04:14:04;6.10;99.90
39371;DHT22;25099;51.946;4.838;2024-02-23T04:16:32;6.10;99.90
39371;DHT22;25099;51.946;4.838;2024-02-23T04:18:58;6.10;99.90
39371;DHT22;25099;51.946;4.838;2024-02-23T04:21:24;6.10;99.90
39371;DHT22;25099;51.946;4.838;2024-02-23T04:23:50;6.10;99.90
39371;DHT22;25099;51.946;4.838;2024-02-23T04:26:17;6.10;99.90
39371;DHT22;25099;51.946;4.838;2024-02-23T04:28:42;6.10;99.90
39371;DHT22;25099;51.946;4.838;2024-02-23T04:31:09;6.10;99.90
39371;DHT22;25099;51.946;4.838;2024-02-23T04:33:35;6.10;99.90
39371;DHT22;25099;51.946;4.838;2024-02-23T04:36:02;6.10;99.90
39371;DHT22;25099;51.946;4.838;2024-02-23T04:38:29;6.10;99.90
39371;DHT22;25099;51.946;4.838;2024-02-23T04:40:54;6.10;99.90
39371;DHT22;25099;51.946;4.838;2024-02-23T04:43:20;6.20;99.90
39371;DHT22;25099;51.946;4.838;2024-02-23T04:45:45;6.20;99.90
39371;DHT22;25099;51.946;4.838;2024-02-23T04:48:11;6.20;99.90
39371;DHT22;25099;51.946;4.838;2024-02-23T04:50:37;6.20;99.90
39371;DHT22;25099;51.946;4.838;2024-02-23T04:53:02;6.30;99.90
39371;DHT22;25099;51.946;4.838;2024-02-23T04:55:28;6.30;99.90
39371;DHT22;25099;51.946;4.838;2024-02-23T04:57:53;6.30;99.90
39371;DHT22;25099;51.946;4.838;2024-02-23T05:00:19;6.30;99.90
39371;DHT22;25099;51.946;4.838;2024-02-23T05:02:45;6.30;99.90
39371;DHT22;25099;51.946;4.838;2024-02-23T05:05:11;6.30;99.90
39371;DHT22;25099;51.946;4.838;2024-02-23T05:07:38;6.40;99.90
39371;DHT22;25099;51.946;4.838;2024-02-23T05:10:04;6.40;99.90
39371;DHT22;25099;51.946;4.838;2024-02-23T05:12:30;6.40;99.90
39371;DHT22;25099;51.946;4.838;2024-02-23T05:14:55;6.40;99.90
39371;DHT22;25099;51.946;4.838;2024-02-23T05:17:21;6.40;99.90
39371;DHT22;25099;51.946;4.838;2024-02-23T05:19:47;6.40;99.90
39371;DHT22;25099;51.946;4.838;2024-02-23T05:22:12;6.40;99.90
39371;DHT22;25099;51.946;4.838;2024-02-23T05:24:38;6.40;99.90
39371;DHT22;25099;51.946;4.838;2024-02-23T05:27:04;6.40;99.90
39371;DHT22;25099;51.946;4.838;2024-02-23T05:29:29;6.40;99.90
39371;DHT22;25099;51.946;4.838;2024-02-23T05:31:55;6.40;99.90
39371;DHT22;25099;51.946;4.838;2024-02-23T05:34:20;6.40;99.90
39371;DHT22;25099;51.946;4.838;2024-02-23T05:36:47;6.40;99.90
39371;DHT22;25099;51.946;4.838;2024-02-23T05:39:13;6.30;99.90
39371;DHT22;25099;51.946;4.838;2024-02-23T05:41:41;6.40;99.90
39371;DHT22;25099;51.946;4.838;2024-02-23T05:44:07;6.30;99.90
39371;DHT22;25099;51.946;4.838;2024-02-23T05:46:35;6.40;99.90
39371;DHT22;25099;51.946;4.838;2024-02-23T05:49:02;6.40;99.90
39371;DHT22;25099;51.946;4.838;2024-02-23T05:51:29;6.30;99.90
39371;DHT22;25099;51.946;4.838;2024-02-23T05:53:55;6.30;99.90
39371;DHT22;25099;51.946;4.838;2024-02-23T05:56:21;6.30;99.90
39371;DHT22;25099;51.946;4.838;2024-02-23T05:58:47;6.30;99.90
39371;DHT22;25099;51.946;4.838;2024-02-23T06:01:13;6.30;99.90
39371;DHT22;25099;51.946;4.838;2024-02-23T06:03:38;6.30;99.90
39371;DHT22;25099;51.946;4.838;2024-02-23T06:06:07;6.40;99.90
39371;DHT22;25099;51.946;4.838;2024-02-23T06:08:33;6.40;99.90
39371;DHT22;25099;51.946;4.838;2024-02-23T06:10:59;6.40;99.90
39371;DHT22;25099;51.946;4.838;2024-02-23T06:13:25;6.40;99.90
39371;DHT22;25099;51.946;4.838;2024-02-23T06:15:51;6.40;99.90
39371;DHT22;25099;51.946;4.838;2024-02-23T06:18:16;6.40;99.90
39371;DHT22;25099;51.946;4.838;2024-02-23T06:20:42;6.40;99.90
39371;DHT22;25099;51.946;4.838;2024-02-23T06:23:07;6.50;99.90
39371;DHT22;25099;51.946;4.838;2024-02-23T06:25:33;6.50;99.90
39371;DHT22;25099;51.946;4.838;2024-02-23T06:27:58;6.50;99.90
39371;DHT22;25099;51.946;4.838;2024-02-23T06:30:24;6.50;99.90
39371;DHT22;25099;51.946;4.838;2024-02-23T06:32:49;6.50;99.90
39371;DHT22;25099;51.946;4.838;2024-02-23T06:35:15;6.50;99.90
39371;DHT22;25099;51.946;4.838;2024-02-23T06:37:40;6.50;99.90
39371;DHT22;25099;51.946;4.838;2024-02-23T06:40:06;6.50;99.90
39371;DHT22;25099;51.946;4.838;2024-02-23T06:42:33;6.50;99.90
39371;DHT22;25099;51.946;4.838;2024-02-23T06:44:58;6.50;99.90
39371;DHT22;25099;51.946;4.838;2024-02-23T06:47:24;6.50;99.90
39371;DHT22;25099;51.946;4.838;2024-02-23T06:49:50;6.50;99.90
39371;DHT22;25099;51.946;4.838;2024-02-23T06:52:16;6.50;99.90
39371;DHT22;25099;51.946;4.838;2024-02-23T06:54:41;6.60;99.90
39371;DHT22;25099;51.946;4.838;2024-02-23T06:57:07;6.60;99.90
39371;DHT22;25099;51.946;4.838;2024-02-23T06:59:33;6.60;99.90
39371;DHT22;25099;51.946;4.838;2024-02-23T07:01:58;6.60;99.90
39371;DHT22;25099;51.946;4.838;2024-02-23T07:04:24;6.60;99.90
39371;DHT22;25099;51.946;4.838;2024-02-23T07:06:50;6.60;99.90
39371;DHT22;25099;51.946;4.838;2024-02-23T07:09:16;6.60;99.90
39371;DHT22;25099;51.946;4.838;2024-02-23T07:11:41;6.60;99.90
39371;DHT22;25099;51.946;4.838;2024-02-23T07:14:09;6.60;99.90
39371;DHT22;25099;51.946;4.838;2024-02-23T07:16:38;6.60;99.90
39371;DHT22;25099;51.946;4.838;2024-02-23T07:19:07;6.60;99.90
39371;DHT22;25099;51.946;4.838;2024-02-23T07:21:33;6.60;99.90
39371;DHT22;25099;51.946;4.838;2024-02-23T07:23:59;6.70;99.90
39371;DHT22;25099;51.946;4.838;2024-02-23T07:26:25;6.70;99.90
39371;DHT22;25099;51.946;4.838;2024-02-23T07:28:50;6.70;99.90
39371;DHT22;25099;51.946;4.838;2024-02-23T07:31:16;6.70;99.90
39371;DHT22;25099;51.946;4.838;2024-02-23T07:33:42;6.70;99.90
39371;DHT22;25099;51.946;4.838;2024-02-23T07:36:14;6.70;99.90
39371;DHT22;25099;51.946;4.838;2024-02-23T07:38:39;6.60;99.90
39371;DHT22;25099;51.946;4.838;2024-02-23T07:41:05;6.60;99.90
39371;DHT22;25099;51.946;4.838;2024-02-23T07:43:30;6.60;99.90
39371;DHT22;25099;51.946;4.838;2024-02-23T07:45:56;6.60;99.90
39371;DHT22;25099;51.946;4.838;2024-02-23T07:48:21;6.60;99.90
39371;DHT22;25099;51.946;4.838;2024-02-23T07:50:47;6.60;99.90
39371;DHT22;25099;51.946;4.838;2024-02-23T07:53:13;6.60;99.90
39371;DHT22;25099;51.946;4.838;2024-02-23T07:55:38;6.60;99.90
39371;DHT22;25099;51.946;4.838;2024-02-23T07:58:04;6.60;99.90
39371;DHT22;25099;51.946;4.838;2024-02-23T08:00:29;6.60;99.90
39371;DHT22;25099;51.946;4.838;2024-02-23T08:02:55;6.60;99.90
39371;DHT22;25099;51.946;4.838;2024-02-23T08:05:22;6.50;99.90
39371;DHT22;25099;51.946;4.838;2024-02-23T08:07:49;6.60;99.90
39371;DHT22;25099;51.946;4.838;2024-02-23T08:10:14;6.50;99.90
39371;DHT22;25099;51.946;4.838;2024-02-23T08:12:40;6.50;99.90
39371;DHT22;25099;51.946;4.838;2024-02-23T08:15:06;6.50;99.90
39371;DHT22;25099;51.946;4.838;2024-02-23T08:17:32;6.50;99.90
39371;DHT22;25099;51.946;4.838;2024-02-23T08:19:57;6.50;99.90
39371;DHT22;25099;51.946;4.838;2024-02-23T08:22:23;6.50;99.90
39371;DHT22;25099;51.946;4.838;2024-02-23T08:24:49;7.30;99.90
39371;DHT22;25099;51.946;4.838;2024-02-23T08:27:14;6.50;99.90
39371;DHT22;25099;51.946;4.838;2024-02-23T08:29:40;6.40;99.90
39371;DHT22;25099;51.946;4.838;2024-02-23T08:32:06;6.40;99.90
39371;DHT22;25099;51.946;4.838;2024-02-23T08:34:32;6.40;99.90
39371;DHT22;25099;51.946;4.838;2024-02-23T08:37:00;6.40;99.90
39371;DHT22;25099;51.946;4.838;2024-02-23T08:39:25;6.40;99.90
39371;DHT22;25099;51.946;4.838;2024-02-23T08:41:52;6.40;99.90
39371;DHT22;25099;51.946;4.838;2024-02-23T08:44:18;6.40;99.90
39371;DHT22;25099;51.946;4.838;2024-02-23T08:46:43;6.40;99.90
39371;DHT22;25099;51.946;4.838;2024-02-23T08:49:09;6.40;99.90
39371;DHT22;25099;51.946;4.838;2024-02-23T08:51:34;6.40;99.90
39371;DHT22;25099;51.946;4.838;2024-02-23T08:54:00;6.40;99.90
39371;DHT22;25099;51.946;4.838;2024-02-23T08:56:30;6.40;99.90
39371;DHT22;25099;51.946;4.838;2024-02-23T08:58:57;6.40;99.90
39371;DHT22;25099;51.946;4.838;2024-02-23T09:01:23;6.40;99.90
39371;DHT22;25099;51.946;4.838;2024-02-23T09:03:48;6.40;99.90
39371;DHT22;25099;51.946;4.838;2024-02-23T09:06:14;6.40;99.90
39371;DHT22;25099;51.946;4.838;2024-02-23T09:08:40;6.40;99.90
39371;DHT22;25099;51.946;4.838;2024-02-23T09:11:06;6.50;99.90
39371;DHT22;25099;51.946;4.838;2024-02-23T09:13:32;6.50;99.90
39371;DHT22;25099;51.946;4.838;2024-02-23T09:15:58;6.50;99.90
39371;DHT22;25099;51.946;4.838;2024-02-23T09:18:24;6.50;99.90
39371;DHT22;25099;51.946;4.838;2024-02-23T09:20:50;6.50;99.90
39371;DHT22;25099;51.946;4.838;2024-02-23T09:23:16;6.50;99.90
39371;DHT22;25099;51.946;4.838;2024-02-23T09:25:43;6.50;99.90
39371;DHT22;25099;51.946;4.838;2024-02-23T09:28:08;6.50;99.90
39371;DHT22;25099;51.946;4.838;2024-02-23T09:30:36;6.50;99.90
39371;DHT22;25099;51.946;4.838;2024-02-23T09:33:02;6.60;99.90
39371;DHT22;25099;51.946;4.838;2024-02-23T09:35:27;6.60;99.90
39371;DHT22;25099;51.946;4.838;2024-02-23T09:37:53;6.70;99.90
39371;DHT22;25099;51.946;4.838;2024-02-23T09:40:19;6.70;99.90
39371;DHT22;25099;51.946;4.838;2024-02-23T09:43:00;7.30;99.90
39371;DHT22;25099;51.946;4.838;2024-02-23T09:45:27;7.00;99.90
39371;DHT22;25099;51.946;4.838;2024-02-23T09:47:57;6.90;99.90
39371;DHT22;25099;51.946;4.838;2024-02-23T09:50:23;7.90;99.90
39371;DHT22;25099;51.946;4.838;2024-02-23T09:52:50;8.00;99.90
39371;DHT22;25099;51.946;4.838;2024-02-23T09:55:25;6.90;99.90
39371;DHT22;25099;51.946;4.838;2024-02-23T09:57:52;7.00;99.90
39371;DHT22;25099;51.946;4.838;2024-02-23T10:00:23;7.00;99.90
39371;DHT22;25099;51.946;4.838;2024-02-23T10:02:49;7.00;99.90
39371;DHT22;25099;51.946;4.838;2024-02-23T10:05:15;7.00;99.90
39371;DHT22;25099;51.946;4.838;2024-02-23T10:07:42;7.00;99.90
39371;DHT22;25099;51.946;4.838;2024-02-23T10:10:09;7.00;99.90
39371;DHT22;25099;51.946;4.838;2024-02-23T10:12:36;7.00;99.90
39371;DHT22;25099;51.946;4.838;2024-02-23T10:15:03;7.00;99.90
39371;DHT22;25099;51.946;4.838;2024-02-23T10:17:31;7.00;99.90
39371;DHT22;25099;51.946;4.838;2024-02-23T10:20:01;6.90;99.90
39371;DHT22;25099;51.946;4.838;2024-02-23T10:22:30;7.80;99.90
39371;DHT22;25099;51.946;4.838;2024-02-23T10:24:56;7.00;99.90
39371;DHT22;25099;51.946;4.838;2024-02-23T10:27:23;7.00;99.90
39371;DHT22;25099;51.946;4.838;2024-02-23T10:29:51;7.00;99.90
39371;DHT22;25099;51.946;4.838;2024-02-23T10:32:18;7.00;99.90
39371;DHT22;25099;51.946;4.838;2024-02-23T10:34:47;7.00;99.90
39371;DHT22;25099;51.946;4.838;2024-02-23T10:37:14;7.10;99.90
39371;DHT22;25099;51.946;4.838;2024-02-23T10:39:39;7.10;99.90
39371;DHT22;25099;51.946;4.838;2024-02-23T10:42:11;7.20;99.90
39371;DHT22;25099;51.946;4.838;2024-02-23T10:44:38;7.20;99.90
39371;DHT22;25099;51.946;4.838;2024-02-23T10:47:04;7.20;99.90
39371;DHT22;25099;51.946;4.838;2024-02-23T10:49:31;7.20;99.90
39371;DHT22;25099;51.946;4.838;2024-02-23T10:51:57;8.00;99.90
39371;DHT22;25099;51.946;4.838;2024-02-23T10:54:22;7.20;99.90
39371;DHT22;25099;51.946;4.838;2024-02-23T10:56:50;7.20;99.90
39371;DHT22;25099;51.946;4.838;2024-02-23T10:59:17;7.20;99.90
39371;DHT22;25099;51.946;4.838;2024-02-23T11:01:51;7.20;99.90
39371;DHT22;25099;51.946;4.838;2024-02-23T11:04:17;7.30;99.90
39371;DHT22;25099;51.946;4.838;2024-02-23T11:06:51;7.30;99.90
39371;DHT22;25099;51.946;4.838;2024-02-23T11:09:16;7.40;99.90
39371;DHT22;25099;51.946;4.838;2024-02-23T11:11:56;7.40;99.90
39371;DHT22;25099;51.946;4.838;2024-02-23T11:14:41;7.50;99.90
39371;DHT22;25099;51.946;4.838;2024-02-23T11:17:17;7.60;99.90
39371;DHT22;25099;51.946;4.838;2024-02-23T11:19:46;7.60;99.90
39371;DHT22;25099;51.946;4.838;2024-02-23T11:22:14;7.70;99.90
39371;DHT22;25099;51.946;4.838;2024-02-23T11:24:43;7.70;99.90
39371;DHT22;25099;51.946;4.838;2024-02-23T11:27:15;7.80;99.90
39371;DHT22;25099;51.946;4.838;2024-02-23T11:29:45;7.80;99.90
39371;DHT22;25099;51.946;4.838;2024-02-23T11:32:17;7.80;99.90
39371;DHT22;25099;51.946;4.838;2024-02-23T11:35:03;7.80;99.90
39371;DHT22;25099;51.946;4.838;2024-02-23T11:37:31;7.80;99.90
39371;DHT22;25099;51.946;4.838;2024-02-23T11:39:57;7.90;99.90
39371;DHT22;25099;51.946;4.838;2024-02-23T11:42:27;7.80;99.90
39371;DHT22;25099;51.946;4.838;2024-02-23T11:44:53;7.90;99.90
39371;DHT22;25099;51.946;4.838;2024-02-23T11:47:22;7.90;99.90
39371;DHT22;25099;51.946;4.838;2024-02-23T11:49:48;7.90;99.90
39371;DHT22;25099;51.946;4.838;2024-02-23T11:52:14;8.70;99.90
39371;DHT22;25099;51.946;4.838;2024-02-23T11:54:40;7.90;99.90
39371;DHT22;25099;51.946;4.838;2024-02-23T11:57:07;7.90;99.90
39371;DHT22;25099;51.946;4.838;2024-02-23T11:59:32;7.90;99.90
39371;DHT22;25099;51.946;4.838;2024-02-23T12:01:58;7.90;99.90
39371;DHT22;25099;51.946;4.838;2024-02-23T12:04:23;8.00;99.90
39371;DHT22;25099;51.946;4.838;2024-02-23T12:06:49;8.00;99.90
39371;DHT22;25099;51.946;4.838;2024-02-23T12:09:15;8.00;99.90
39371;DHT22;25099;51.946;4.838;2024-02-23T12:11:41;8.10;99.90
39371;DHT22;25099;51.946;4.838;2024-02-23T12:14:07;8.10;99.90
39371;DHT22;25099;51.946;4.838;2024-02-23T12:16:35;8.10;99.90
39371;DHT22;25099;51.946;4.838;2024-02-23T12:19:02;8.20;99.90
39371;DHT22;25099;51.946;4.838;2024-02-23T12:21:28;8.30;99.90
39371;DHT22;25099;51.946;4.838;2024-02-23T12:23:54;8.20;99.90
39371;DHT22;25099;51.946;4.838;2024-02-23T12:26:19;8.30;99.90
39371;DHT22;25099;51.946;4.838;2024-02-23T12:28:46;9.10;99.90
39371;DHT22;25099;51.946;4.838;2024-02-23T12:31:12;8.50;99.90
39371;DHT22;25099;51.946;4.838;2024-02-23T12:33:39;8.50;99.90
39371;DHT22;25099;51.946;4.838;2024-02-23T12:36:06;8.70;99.90
39371;DHT22;25099;51.946;4.838;2024-02-23T12:38:32;8.70;99.90
39371;DHT22;25099;51.946;4.838;2024-02-23T12:40:58;9.10;99.90
39371;DHT22;25099;51.946;4.838;2024-02-23T12:43:24;8.70;99.90
39371;DHT22;25099;51.946;4.838;2024-02-23T12:45:51;8.70;99.90
39371;DHT22;25099;51.946;4.838;2024-02-23T12:48:18;9.30;99.90
39371;DHT22;25099;51.946;4.838;2024-02-23T12:50:45;8.80;99.90
39371;DHT22;25099;51.946;4.838;2024-02-23T12:53:30;8.80;99.90
39371;DHT22;25099;51.946;4.838;2024-02-23T12:56:01;8.80;99.90
39371;DHT22;25099;51.946;4.838;2024-02-23T12:58:26;8.80;99.90
39371;DHT22;25099;51.946;4.838;2024-02-23T13:00:52;8.70;99.90
39371;DHT22;25099;51.946;4.838;2024-02-23T13:03:18;8.80;99.90
39371;DHT22;25099;51.946;4.838;2024-02-23T13:05:44;8.80;99.90
39371;DHT22;25099;51.946;4.838;2024-02-23T13:08:09;9.20;99.90
39371;DHT22;25099;51.946;4.838;2024-02-23T13:10:35;9.00;99.90
39371;DHT22;25099;51.946;4.838;2024-02-23T13:13:01;8.80;99.90
39371;DHT22;25099;51.946;4.838;2024-02-23T13:15:26;8.80;99.90
39371;DHT22;25099;51.946;4.838;2024-02-23T13:17:52;8.90;99.90
39371;DHT22;25099;51.946;4.838;2024-02-23T13:20:17;8.90;99.90
39371;DHT22;25099;51.946;4.838;2024-02-23T13:22:43;8.90;99.90
39371;DHT22;25099;51.946;4.838;2024-02-23T13:25:09;8.90;99.90
39371;DHT22;25099;51.946;4.838;2024-02-23T13:27:34;8.90;99.90
39371;DHT22;25099;51.946;4.838;2024-02-23T13:30:00;8.90;99.90
39371;DHT22;25099;51.946;4.838;2024-02-23T13:32:25;8.90;99.90
39371;DHT22;25099;51.946;4.838;2024-02-23T13:34:51;8.90;99.90
39371;DHT22;25099;51.946;4.838;2024-02-23T13:37:18;8.80;99.90
39371;DHT22;25099;51.946;4.838;2024-02-23T13:39:43;8.90;99.90
39371;DHT22;25099;51.946;4.838;2024-02-23T13:42:09;8.90;99.90
39371;DHT22;25099;51.946;4.838;2024-02-23T13:44:35;8.80;99.90
39371;DHT22;25099;51.946;4.838;2024-02-23T13:47:01;8.80;99.90
39371;DHT22;25099;51.946;4.838;2024-02-23T13:49:27;8.90;99.90
39371;DHT22;25099;51.946;4.838;2024-02-23T13:51:53;8.90;99.90
39371;DHT22;25099;51.946;4.838;2024-02-23T13:54:18;8.90;99.90
39371;DHT22;25099;51.946;4.838;2024-02-23T13:56:44;8.90;99.90
39371;DHT22;25099;51.946;4.838;2024-02-23T13:59:10;8.90;99.90
39371;DHT22;25099;51.946;4.838;2024-02-23T14:01:35;8.90;99.90
39371;DHT22;25099;51.946;4.838;2024-02-23T14:04:06;8.90;99.90
39371;DHT22;25099;51.946;4.838;2024-02-23T14:06:31;8.90;99.90
39371;DHT22;25099;51.946;4.838;2024-02-23T14:08:57;8.90;99.90
39371;DHT22;25099;51.946;4.838;2024-02-23T14:11:23;8.90;99.90
39371;DHT22;25099;51.946;4.838;2024-02-23T14:13:48;8.60;99.90
39371;DHT22;25099;51.946;4.838;2024-02-23T14:16:14;8.80;99.90
39371;DHT22;25099;51.946;4.838;2024-02-23T14:18:40;9.20;99.90
39371;DHT22;25099;51.946;4.838;2024-02-23T14:21:07;8.70;99.90
39371;DHT22;25099;51.946;4.838;2024-02-23T14:23:33;8.60;99.90
39371;DHT22;25099;51.946;4.838;2024-02-23T14:25:59;8.60;99.90
39371;DHT22;25099;51.946;4.838;2024-02-23T14:28:25;8.60;99.90
39371;DHT22;25099;51.946;4.838;2024-02-23T14:30:51;8.70;99.90
39371;DHT22;25099;51.946;4.838;2024-02-23T14:33:18;8.70;99.90
39371;DHT22;25099;51.946;4.838;2024-02-23T14:35:44;8.70;99.90
39371;DHT22;25099;51.946;4.838;2024-02-23T14:38:09;8.70;99.90
39371;DHT22;25099;51.946;4.838;2024-02-23T14:40:35;8.70;99.90
39371;DHT22;25099;51.946;4.838;2024-02-23T14:43:03;8.70;99.90
39371;DHT22;25099;51.946;4.838;2024-02-23T14:45:28;8.60;99.90
39371;DHT22;25099;51.946;4.838;2024-02-23T14:47:54;8.70;99.90
39371;DHT22;25099;51.946;4.838;2024-02-23T14:50:20;8.70;99.90
39371;DHT22;25099;51.946;4.838;2024-02-23T14:52:45;8.70;99.90
39371;DHT22;25099;51.946;4.838;2024-02-23T14:55:11;8.60;99.90
39371;DHT22;25099;51.946;4.838;2024-02-23T14:57:37;9.40;99.90
39371;DHT22;25099;51.946;4.838;2024-02-23T15:00:04;8.60;99.90
39371;DHT22;25099;51.946;4.838;2024-02-23T15:02:30;8.60;99.90
39371;DHT22;25099;51.946;4.838;2024-02-23T15:04:55;8.60;99.90
39371;DHT22;25099;51.946;4.838;2024-02-23T15:07:21;8.70;99.90
39371;DHT22;25099;51.946;4.838;2024-02-23T15:09:46;8.70;99.90
39371;DHT22;25099;51.946;4.838;2024-02-23T15:12:12;8.70;99.90
39371;DHT22;25099;51.946;4.838;2024-02-23T15:14:39;8.70;99.90
39371;DHT22;25099;51.946;4.838;2024-02-23T15:17:04;8.70;99.90
39371;DHT22;25099;51.946;4.838;2024-02-23T15:19:30;8.70;99.90
39371;DHT22;25099;51.946;4.838;2024-02-23T15:21:56;8.70;99.90
39371;DHT22;25099;51.946;4.838;2024-02-23T15:24:23;8.70;99.90
39371;DHT22;25099;51.946;4.838;2024-02-23T15:26:50;8.70;99.90
39371;DHT22;25099;51.946;4.838;2024-02-23T15:29:15;8.70;99.90
39371;DHT22;25099;51.946;4.838;2024-02-23T15:31:41;8.70;99.90
39371;DHT22;25099;51.946;4.838;2024-02-23T15:34:08;8.70;99.90
39371;DHT22;25099;51.946;4.838;2024-02-23T15:36:34;8.70;99.90
39371;DHT22;25099;51.946;4.838;2024-02-23T15:38:59;8.60;99.90